sensor_id;sensor_type;location;lat;lon;timestamp;noise_LAeq;noise_LA_min;noise_LA_max;noise_LA01;noise_LA95
69619;Laerm;57653;51.434;5.984;2023-02-08T00:00:02;33.29;31.73;35.00;;
69619;Laerm;57653;51.434;5.984;2023-02-08T00:00:13;35.71;31.24;45.80;;
69619;Laerm;57653;51.434;5.984;2023-02-08T00:00:23;32.04;31.03;33.10;;
69619;Laerm;57653;51.434;5.984;2023-02-08T00:00:34;32.13;30.67;33.39;;
69619;Laerm;57653;51.434;5.984;2023-02-08T00:00:46;32.18;30.95;33.45;;
69619;Laerm;57653;51.434;5.984;2023-02-08T00:00:57;31.94;30.89;33.01;;
69619;Laerm;57653;51.434;5.984;2023-02-08T00:01:08;32.05;30.86;33.16;;
69619;Laerm;57653;51.434;5.984;2023-02-08T00:01:20;32.19;30.95;33.56;;
69619;Laerm;57653;51.434;5.984;2023-02-08T00:01:30;32.23;30.84;33.71;;
69619;Laerm;57653;51.434;5.984;2023-02-08T00:01:41;32.16;30.81;33.09;;
69619;Laerm;57653;51.434;5.984;2023-02-08T00:01:52;32.02;31.05;33.11;;
69619;Laerm;57653;51.434;5.984;2023-02-08T00:02:02;32.11;30.52;33.08;;
69619;Laerm;57653;51.434;5.984;2023-02-08T00:02:12;32.14;30.91;33.68;;
69619;Laerm;57653;51.434;5.984;2023-02-08T00:02:22;31.91;30.73;33.17;;
69619;Laerm;57653;51.434;5.984;2023-02-08T00:02:33;32.26;30.97;38.27;;
69619;Laerm;57653;51.434;5.984;2023-02-08T00:02:43;32.58;31.04;42.47;;
69619;Laerm;57653;51.434;5.984;2023-02-08T00:02:53;31.98;30.54;33.15;;
69619;Laerm;57653;51.434;5.984;2023-02-08T00:03:03;32.53;30.86;43.10;;
69619;Laerm;57653;51.434;5.984;2023-02-08T00:03:14;32.01;30.77;33.82;;
69619;Laerm;57653;51.434;5.984;2023-02-08T00:03:24;31.94;30.69;32.96;;
69619;Laerm;57653;51.434;5.984;2023-02-08T00:03:36;31.97;30.71;32.87;;
69619;Laerm;57653;51.434;5.984;2023-02-08T00:03:47;31.92;30.74;32.94;;
69619;Laerm;57653;51.434;5.984;2023-02-08T00:03:57;31.89;30.55;33.09;;
69619;Laerm;57653;51.434;5.984;2023-02-08T00:04:07;31.95;30.77;33.14;;
69619;Laerm;57653;51.434;5.984;2023-02-08T00:04:17;31.99;31.05;33.02;;
69619;Laerm;57653;51.434;5.984;2023-02-08T00:04:28;31.89;30.57;32.82;;
69619;Laerm;57653;51.434;5.984;2023-02-08T00:04:38;31.92;30.84;32.89;;
69619;Laerm;57653;51.434;5.984;2023-02-08T00:04:48;31.91;30.91;32.96;;
69619;Laerm;57653;51.434;5.984;2023-02-08T00:04:58;31.87;30.72;32.99;;
69619;Laerm;57653;51.434;5.984;2023-02-08T00:05:09;31.86;30.91;33.15;;
69619;Laerm;57653;51.434;5.984;2023-02-08T00:05:19;31.88;30.88;32.99;;
69619;Laerm;57653;51.434;5.984;2023-02-08T00:05:29;31.90;30.74;33.66;;
69619;Laerm;57653;51.434;5.984;2023-02-08T00:05:40;31.84;30.83;32.66;;
69619;Laerm;57653;51.434;5.984;2023-02-08T00:05:50;31.80;30.70;32.88;;
69619;Laerm;57653;51.434;5.984;2023-02-08T00:06:00;31.82;30.77;32.81;;
69619;Laerm;57653;51.434;5.984;2023-02-08T00:06:11;31.82;30.58;33.12;;
69619;Laerm;57653;51.434;5.984;2023-02-08T00:06:22;31.77;30.74;33.33;;
69619;Laerm;57653;51.434;5.984;2023-02-08T00:06:32;31.79;30.73;32.77;;
69619;Laerm;57653;51.434;5.984;2023-02-08T00:06:42;31.84;30.83;32.91;;
69619;Laerm;57653;51.434;5.984;2023-02-08T00:06:52;31.90;31.06;32.85;;
69619;Laerm;57653;51.434;5.984;2023-02-08T00:07:03;32.03;30.69;33.20;;
69619;Laerm;57653;51.434;5.984;2023-02-08T00:07:13;33.14;31.05;37.76;;
69619;Laerm;57653;51.434;5.984;2023-02-08T00:07:23;34.73;31.21;38.95;;
69619;Laerm;57653;51.434;5.984;2023-02-08T00:07:34;31.99;30.89;33.35;;
69619;Laerm;57653;51.434;5.984;2023-02-08T00:07:44;32.63;30.96;34.43;;
69619;Laerm;57653;51.434;5.984;2023-02-08T00:07:55;32.17;30.43;34.24;;
69619;Laerm;57653;51.434;5.984;2023-02-08T00:08:05;31.81;30.79;32.99;;
69619;Laerm;57653;51.434;5.984;2023-02-08T00:08:16;31.79;30.68;32.98;;
69619;Laerm;57653;51.434;5.984;2023-02-08T00:08:26;31.73;30.75;32.69;;
69619;Laerm;57653;51.434;5.984;2023-02-08T00:08:37;31.75;30.61;32.79;;
69619;Laerm;57653;51.434;5.984;2023-02-08T00:08:48;31.70;30.66;32.57;;
69619;Laerm;57653;51.434;5.984;2023-02-08T00:08:58;31.72;30.65;32.52;;
69619;Laerm;57653;51.434;5.984;2023-02-08T00:09:10;31.67;30.67;32.76;;
69619;Laerm;57653;51.434;5.984;2023-02-08T00:09:20;31.68;30.37;32.74;;
69619;Laerm;57653;51.434;5.984;2023-02-08T00:09:31;31.69;30.69;32.80;;
69619;Laerm;57653;51.434;5.984;2023-02-08T00:09:41;31.78;30.72;32.97;;
69619;Laerm;57653;51.434;5.984;2023-02-08T00:09:51;31.70;30.62;32.70;;
69619;Laerm;57653;51.434;5.984;2023-02-08T00:10:01;31.72;30.42;33.50;;
69619;Laerm;57653;51.434;5.984;2023-02-08T00:10:14;31.68;30.52;32.77;;
69619;Laerm;57653;51.434;5.984;2023-02-08T00:10:24;31.73;30.67;32.73;;
69619;Laerm;57653;51.434;5.984;2023-02-08T00:10:34;31.75;30.60;32.50;;
69619;Laerm;57653;51.434;5.984;2023-02-08T00:10:45;31.70;30.53;32.71;;
69619;Laerm;57653;51.434;5.984;2023-02-08T00:10:55;31.71;30.56;32.91;;
69619;Laerm;57653;51.434;5.984;2023-02-08T00:11:06;31.66;30.45;32.96;;
69619;Laerm;57653;51.434;5.984;2023-02-08T00:11:16;31.70;30.62;32.61;;
69619;Laerm;57653;51.434;5.984;2023-02-08T00:11:27;31.71;30.68;32.58;;
69619;Laerm;57653;51.434;5.984;2023-02-08T00:11:37;31.72;30.64;32.95;;
69619;Laerm;57653;51.434;5.984;2023-02-08T00:11:47;31.71;30.75;32.94;;
69619;Laerm;57653;51.434;5.984;2023-02-08T00:11:57;31.73;30.62;33.27;;
69619;Laerm;57653;51.434;5.984;2023-02-08T00:12:08;31.71;30.40;32.64;;
69619;Laerm;57653;51.434;5.984;2023-02-08T00:12:18;31.70;30.50;32.66;;
69619;Laerm;57653;51.434;5.984;2023-02-08T00:12:28;31.87;30.47;34.07;;
69619;Laerm;57653;51.434;5.984;2023-02-08T00:12:38;31.86;30.74;35.24;;
69619;Laerm;57653;51.434;5.984;2023-02-08T00:12:49;31.71;30.50;32.88;;
69619;Laerm;57653;51.434;5.984;2023-02-08T00:13:01;31.78;30.70;33.53;;
69619;Laerm;57653;51.434;5.984;2023-02-08T00:13:11;31.70;30.71;32.92;;
69619;Laerm;57653;51.434;5.984;2023-02-08T00:13:22;31.67;30.56;32.74;;
69619;Laerm;57653;51.434;5.984;2023-02-08T00:13:33;31.76;30.57;32.92;;
69619;Laerm;57653;51.434;5.984;2023-02-08T00:13:43;31.68;30.48;32.79;;
69619;Laerm;57653;51.434;5.984;2023-02-08T00:13:53;31.75;30.57;32.86;;
69619;Laerm;57653;51.434;5.984;2023-02-08T00:14:04;31.74;30.61;32.91;;
69619;Laerm;57653;51.434;5.984;2023-02-08T00:14:14;31.76;30.51;32.98;;
69619;Laerm;57653;51.434;5.984;2023-02-08T00:14:24;31.66;30.46;32.78;;
69619;Laerm;57653;51.434;5.984;2023-02-08T00:14:35;31.64;30.69;32.75;;
69619;Laerm;57653;51.434;5.984;2023-02-08T00:14:45;31.75;30.56;33.40;;
69619;Laerm;57653;51.434;5.984;2023-02-08T00:14:56;31.69;30.74;32.93;;
69619;Laerm;57653;51.434;5.984;2023-02-08T00:15:06;36.56;30.62;47.97;;
69619;Laerm;57653;51.434;5.984;2023-02-08T00:15:17;37.71;30.77;50.62;;
69619;Laerm;57653;51.434;5.984;2023-02-08T00:15:27;34.38;30.50;47.43;;
69619;Laerm;57653;51.434;5.984;2023-02-08T00:15:41;32.92;30.63;44.77;;
69619;Laerm;57653;51.434;5.984;2023-02-08T00:15:52;31.82;30.05;40.59;;
69619;Laerm;57653;51.434;5.984;2023-02-08T00:16:03;31.73;30.62;33.91;;
69619;Laerm;57653;51.434;5.984;2023-02-08T00:16:13;31.95;30.40;37.08;;
69619;Laerm;57653;51.434;5.984;2023-02-08T00:16:24;31.68;30.51;33.56;;
69619;Laerm;57653;51.434;5.984;2023-02-08T00:16:34;34.43;30.63;43.17;;
69619;Laerm;57653;51.434;5.984;2023-02-08T00:16:44;33.13;30.56;46.63;;
69619;Laerm;57653;51.434;5.984;2023-02-08T00:16:55;31.59;30.27;33.14;;
69619;Laerm;57653;51.434;5.984;2023-02-08T00:17:05;31.71;30.54;34.06;;
69619;Laerm;57653;51.434;5.984;2023-02-08T00:17:15;31.73;30.71;35.23;;
69619;Laerm;57653;51.434;5.984;2023-02-08T00:17:26;31.91;30.45;37.58;;
69619;Laerm;57653;51.434;5.984;2023-02-08T00:17:36;31.70;30.70;33.74;;
69619;Laerm;57653;51.434;5.984;2023-02-08T00:17:46;31.73;30.54;33.64;;
69619;Laerm;57653;51.434;5.984;2023-02-08T00:17:57;31.74;30.49;33.88;;
69619;Laerm;57653;51.434;5.984;2023-02-08T00:18:07;32.02;30.64;36.80;;
69619;Laerm;57653;51.434;5.984;2023-02-08T00:18:18;32.03;30.74;34.82;;
69619;Laerm;57653;51.434;5.984;2023-02-08T00:18:28;34.49;31.41;37.73;;
69619;Laerm;57653;51.434;5.984;2023-02-08T00:18:38;33.08;31.02;38.99;;
69619;Laerm;57653;51.434;5.984;2023-02-08T00:18:49;34.35;31.35;39.27;;
69619;Laerm;57653;51.434;5.984;2023-02-08T00:18:59;33.41;31.16;40.19;;
69619;Laerm;57653;51.434;5.984;2023-02-08T00:19:09;33.29;30.92;41.20;;
69619;Laerm;57653;51.434;5.984;2023-02-08T00:19:19;33.93;31.23;40.64;;
69619;Laerm;57653;51.434;5.984;2023-02-08T00:19:30;36.63;30.73;48.16;;
69619;Laerm;57653;51.434;5.984;2023-02-08T00:19:40;34.00;31.00;38.72;;
69619;Laerm;57653;51.434;5.984;2023-02-08T00:19:51;34.67;31.11;42.90;;
69619;Laerm;57653;51.434;5.984;2023-02-08T00:20:01;32.83;30.41;42.53;;
69619;Laerm;57653;51.434;5.984;2023-02-08T00:20:12;32.68;30.78;42.76;;
69619;Laerm;57653;51.434;5.984;2023-02-08T00:20:22;32.30;30.40;44.80;;
69619;Laerm;57653;51.434;5.984;2023-02-08T00:20:33;31.60;30.75;32.56;;
69619;Laerm;57653;51.434;5.984;2023-02-08T00:20:43;31.75;30.57;38.67;;
69619;Laerm;57653;51.434;5.984;2023-02-08T00:20:53;31.52;30.40;32.68;;
69619;Laerm;57653;51.434;5.984;2023-02-08T00:21:10;31.53;30.55;32.60;;
69619;Laerm;57653;51.434;5.984;2023-02-08T00:21:20;31.55;30.48;32.73;;
69619;Laerm;57653;51.434;5.984;2023-02-08T00:21:30;31.51;30.15;32.45;;
69619;Laerm;57653;51.434;5.984;2023-02-08T00:21:41;31.54;30.56;32.71;;
69619;Laerm;57653;51.434;5.984;2023-02-08T00:21:51;31.55;30.54;32.65;;
69619;Laerm;57653;51.434;5.984;2023-02-08T00:22:01;31.52;30.54;32.40;;
69619;Laerm;57653;51.434;5.984;2023-02-08T00:22:11;31.52;30.32;32.75;;
69619;Laerm;57653;51.434;5.984;2023-02-08T00:22:22;31.56;30.49;32.73;;
69619;Laerm;57653;51.434;5.984;2023-02-08T00:22:32;31.52;30.59;32.48;;
69619;Laerm;57653;51.434;5.984;2023-02-08T00:22:43;31.59;30.36;32.60;;
69619;Laerm;57653;51.434;5.984;2023-02-08T00:22:53;31.58;30.39;37.01;;
69619;Laerm;57653;51.434;5.984;2023-02-08T00:23:03;31.53;30.67;32.48;;
69619;Laerm;57653;51.434;5.984;2023-02-08T00:23:13;31.52;30.05;32.38;;
69619;Laerm;57653;51.434;5.984;2023-02-08T00:23:24;31.59;30.67;32.47;;
69619;Laerm;57653;51.434;5.984;2023-02-08T00:23:35;31.59;30.39;32.62;;
69619;Laerm;57653;51.434;5.984;2023-02-08T00:23:45;31.57;30.49;32.59;;
69619;Laerm;57653;51.434;5.984;2023-02-08T00:23:56;31.54;30.10;32.93;;
69619;Laerm;57653;51.434;5.984;2023-02-08T00:24:06;31.52;30.61;32.49;;
69619;Laerm;57653;51.434;5.984;2023-02-08T00:24:17;31.54;30.46;32.53;;
69619;Laerm;57653;51.434;5.984;2023-02-08T00:24:28;31.54;30.64;32.79;;
69619;Laerm;57653;51.434;5.984;2023-02-08T00:24:38;31.53;30.61;32.66;;
69619;Laerm;57653;51.434;5.984;2023-02-08T00:24:49;31.55;30.49;32.45;;
69619;Laerm;57653;51.434;5.984;2023-02-08T00:25:00;31.55;30.50;32.39;;
69619;Laerm;57653;51.434;5.984;2023-02-08T00:25:10;31.54;30.53;32.44;;
69619;Laerm;57653;51.434;5.984;2023-02-08T00:25:20;31.59;30.51;32.84;;
69619;Laerm;57653;51.434;5.984;2023-02-08T00:25:30;31.51;30.33;32.54;;
69619;Laerm;57653;51.434;5.984;2023-02-08T00:25:41;31.55;30.35;32.60;;
69619;Laerm;57653;51.434;5.984;2023-02-08T00:25:51;31.51;30.61;32.75;;
69619;Laerm;57653;51.434;5.984;2023-02-08T00:26:01;31.57;30.55;32.44;;
69619;Laerm;57653;51.434;5.984;2023-02-08T00:26:12;31.51;30.19;32.64;;
69619;Laerm;57653;51.434;5.984;2023-02-08T00:26:23;31.53;30.42;32.83;;
69619;Laerm;57653;51.434;5.984;2023-02-08T00:26:34;31.55;30.45;32.67;;
69619;Laerm;57653;51.434;5.984;2023-02-08T00:26:44;31.53;30.62;32.58;;
69619;Laerm;57653;51.434;5.984;2023-02-08T00:26:54;31.54;30.50;32.38;;
69619;Laerm;57653;51.434;5.984;2023-02-08T00:27:04;31.55;30.46;32.60;;
69619;Laerm;57653;51.434;5.984;2023-02-08T00:27:15;31.50;30.40;32.84;;
69619;Laerm;57653;51.434;5.984;2023-02-08T00:27:25;31.52;30.35;32.47;;
69619;Laerm;57653;51.434;5.984;2023-02-08T00:27:35;31.49;30.51;32.46;;
69619;Laerm;57653;51.434;5.984;2023-02-08T00:27:46;31.55;30.29;32.64;;
69619;Laerm;57653;51.434;5.984;2023-02-08T00:27:56;32.50;30.62;42.98;;
69619;Laerm;57653;51.434;5.984;2023-02-08T00:28:07;31.52;30.41;32.57;;
69619;Laerm;57653;51.434;5.984;2023-02-08T00:28:18;43.64;30.65;58.04;;
69619;Laerm;57653;51.434;5.984;2023-02-08T00:28:28;37.58;30.12;55.63;;
69619;Laerm;57653;51.434;5.984;2023-02-08T00:28:39;31.80;30.35;36.30;;
69619;Laerm;57653;51.434;5.984;2023-02-08T00:28:49;31.60;30.50;33.26;;
69619;Laerm;57653;51.434;5.984;2023-02-08T00:28:59;31.61;30.49;33.51;;
69619;Laerm;57653;51.434;5.984;2023-02-08T00:29:09;31.58;30.39;33.05;;
69619;Laerm;57653;51.434;5.984;2023-02-08T00:29:19;31.58;30.32;32.93;;
69619;Laerm;57653;51.434;5.984;2023-02-08T00:29:30;31.59;30.40;32.58;;
69619;Laerm;57653;51.434;5.984;2023-02-08T00:29:40;31.56;30.36;32.75;;
69619;Laerm;57653;51.434;5.984;2023-02-08T00:29:50;31.52;30.21;32.54;;
69619;Laerm;57653;51.434;5.984;2023-02-08T00:30:01;31.58;30.68;32.48;;
69619;Laerm;57653;51.434;5.984;2023-02-08T00:30:11;31.54;30.35;32.72;;
69619;Laerm;57653;51.434;5.984;2023-02-08T00:30:21;31.55;30.15;32.73;;
69619;Laerm;57653;51.434;5.984;2023-02-08T00:30:32;31.46;30.37;32.41;;
69619;Laerm;57653;51.434;5.984;2023-02-08T00:30:42;31.51;30.50;32.64;;
69619;Laerm;57653;51.434;5.984;2023-02-08T00:30:53;31.51;30.33;32.48;;
69619;Laerm;57653;51.434;5.984;2023-02-08T00:31:03;31.56;30.57;32.51;;
69619;Laerm;57653;51.434;5.984;2023-02-08T00:31:13;36.23;30.58;47.64;;
69619;Laerm;57653;51.434;5.984;2023-02-08T00:31:23;31.53;30.49;32.63;;
69619;Laerm;57653;51.434;5.984;2023-02-08T00:31:34;31.51;30.44;32.58;;
69619;Laerm;57653;51.434;5.984;2023-02-08T00:31:44;31.57;30.20;32.60;;
69619;Laerm;57653;51.434;5.984;2023-02-08T00:31:54;31.52;30.07;32.37;;
69619;Laerm;57653;51.434;5.984;2023-02-08T00:32:04;31.52;30.45;32.43;;
69619;Laerm;57653;51.434;5.984;2023-02-08T00:32:15;31.53;30.43;32.48;;
69619;Laerm;57653;51.434;5.984;2023-02-08T00:32:25;31.55;30.30;32.36;;
69619;Laerm;57653;51.434;5.984;2023-02-08T00:32:35;31.57;30.42;32.70;;
69619;Laerm;57653;51.434;5.984;2023-02-08T00:32:46;31.50;30.29;32.67;;
69619;Laerm;57653;51.434;5.984;2023-02-08T00:32:56;31.54;30.28;32.42;;
69619;Laerm;57653;51.434;5.984;2023-02-08T00:33:07;31.53;30.50;32.53;;
69619;Laerm;57653;51.434;5.984;2023-02-08T00:33:17;31.58;30.37;32.63;;
69619;Laerm;57653;51.434;5.984;2023-02-08T00:33:28;31.53;30.36;32.70;;
69619;Laerm;57653;51.434;5.984;2023-02-08T00:33:38;31.52;30.46;32.59;;
69619;Laerm;57653;51.434;5.984;2023-02-08T00:33:48;31.57;30.20;32.41;;
69619;Laerm;57653;51.434;5.984;2023-02-08T00:33:58;31.62;30.52;32.88;;
69619;Laerm;57653;51.434;5.984;2023-02-08T00:34:09;31.58;30.27;32.55;;
69619;Laerm;57653;51.434;5.984;2023-02-08T00:34:19;31.53;30.39;32.52;;
69619;Laerm;57653;51.434;5.984;2023-02-08T00:34:29;31.60;30.50;32.84;;
69619;Laerm;57653;51.434;5.984;2023-02-08T00:34:40;31.57;30.18;32.74;;
69619;Laerm;57653;51.434;5.984;2023-02-08T00:34:50;31.51;30.36;32.38;;
69619;Laerm;57653;51.434;5.984;2023-02-08T00:35:00;31.49;30.48;32.50;;
69619;Laerm;57653;51.434;5.984;2023-02-08T00:35:10;31.51;30.47;32.49;;
69619;Laerm;57653;51.434;5.984;2023-02-08T00:35:21;31.54;30.57;32.43;;
69619;Laerm;57653;51.434;5.984;2023-02-08T00:35:31;31.53;30.55;32.42;;
69619;Laerm;57653;51.434;5.984;2023-02-08T00:35:42;31.55;30.40;32.57;;
69619;Laerm;57653;51.434;5.984;2023-02-08T00:36:02;31.58;30.24;32.63;;
69619;Laerm;57653;51.434;5.984;2023-02-08T00:36:13;31.54;30.36;32.53;;
69619;Laerm;57653;51.434;5.984;2023-02-08T00:36:23;31.53;30.59;32.46;;
69619;Laerm;57653;51.434;5.984;2023-02-08T00:36:34;31.58;30.47;32.81;;
69619;Laerm;57653;51.434;5.984;2023-02-08T00:36:44;31.57;30.29;32.68;;
69619;Laerm;57653;51.434;5.984;2023-02-08T00:36:54;31.52;30.61;32.66;;
69619;Laerm;57653;51.434;5.984;2023-02-08T00:37:05;31.55;30.48;32.55;;
69619;Laerm;57653;51.434;5.984;2023-02-08T00:37:15;31.55;30.61;32.61;;
69619;Laerm;57653;51.434;5.984;2023-02-08T00:37:25;31.56;30.34;32.58;;
69619;Laerm;57653;51.434;5.984;2023-02-08T00:37:36;31.58;30.39;32.81;;
69619;Laerm;57653;51.434;5.984;2023-02-08T00:37:46;31.58;30.29;32.59;;
69619;Laerm;57653;51.434;5.984;2023-02-08T00:37:56;31.61;30.63;32.77;;
69619;Laerm;57653;51.434;5.984;2023-02-08T00:38:06;31.60;30.66;32.95;;
69619;Laerm;57653;51.434;5.984;2023-02-08T00:38:17;31.58;30.42;32.39;;
69619;Laerm;57653;51.434;5.984;2023-02-08T00:38:27;31.53;30.41;32.46;;
69619;Laerm;57653;51.434;5.984;2023-02-08T00:38:37;31.55;30.33;32.61;;
69619;Laerm;57653;51.434;5.984;2023-02-08T00:38:47;31.61;30.56;32.60;;
69619;Laerm;57653;51.434;5.984;2023-02-08T00:38:58;31.62;30.55;32.87;;
69619;Laerm;57653;51.434;5.984;2023-02-08T00:39:08;31.73;30.77;33.21;;
69619;Laerm;57653;51.434;5.984;2023-02-08T00:39:18;31.76;30.80;33.21;;
69619;Laerm;57653;51.434;5.984;2023-02-08T00:39:30;31.78;30.73;32.85;;
69619;Laerm;57653;51.434;5.984;2023-02-08T00:39:40;31.98;30.51;33.45;;
69619;Laerm;57653;51.434;5.984;2023-02-08T00:39:51;31.93;30.65;33.15;;
69619;Laerm;57653;51.434;5.984;2023-02-08T00:40:01;32.45;30.58;35.27;;
69619;Laerm;57653;51.434;5.984;2023-02-08T00:40:12;35.60;32.25;40.94;;
69619;Laerm;57653;51.434;5.984;2023-02-08T00:40:22;33.57;31.75;36.49;;
69619;Laerm;57653;51.434;5.984;2023-02-08T00:40:32;32.20;30.47;34.11;;
69619;Laerm;57653;51.434;5.984;2023-02-08T00:40:43;31.79;30.73;32.83;;
69619;Laerm;57653;51.434;5.984;2023-02-08T00:40:53;31.59;30.50;32.65;;
69619;Laerm;57653;51.434;5.984;2023-02-08T00:41:03;31.62;30.58;32.82;;
69619;Laerm;57653;51.434;5.984;2023-02-08T00:41:14;31.59;30.47;32.77;;
69619;Laerm;57653;51.434;5.984;2023-02-08T00:41:24;31.61;30.53;32.69;;
69619;Laerm;57653;51.434;5.984;2023-02-08T00:41:34;31.59;30.52;32.82;;
69619;Laerm;57653;51.434;5.984;2023-02-08T00:41:45;31.58;30.26;32.54;;
69619;Laerm;57653;51.434;5.984;2023-02-08T00:41:55;31.59;30.29;32.45;;
69619;Laerm;57653;51.434;5.984;2023-02-08T00:42:05;31.60;30.78;32.49;;
69619;Laerm;57653;51.434;5.984;2023-02-08T00:42:15;31.58;30.64;32.64;;
69619;Laerm;57653;51.434;5.984;2023-02-08T00:42:26;31.55;30.61;32.53;;
69619;Laerm;57653;51.434;5.984;2023-02-08T00:42:36;31.59;30.15;32.93;;
69619;Laerm;57653;51.434;5.984;2023-02-08T00:42:47;31.61;30.31;32.68;;
69619;Laerm;57653;51.434;5.984;2023-02-08T00:42:57;31.62;30.65;32.76;;
69619;Laerm;57653;51.434;5.984;2023-02-08T00:43:07;31.56;30.55;32.53;;
69619;Laerm;57653;51.434;5.984;2023-02-08T00:43:17;31.57;30.53;32.65;;
69619;Laerm;57653;51.434;5.984;2023-02-08T00:43:28;31.63;30.45;32.67;;
69619;Laerm;57653;51.434;5.984;2023-02-08T00:43:39;31.66;30.52;34.65;;
69619;Laerm;57653;51.434;5.984;2023-02-08T00:43:49;31.69;30.72;32.76;;
69619;Laerm;57653;51.434;5.984;2023-02-08T00:43:59;31.72;30.79;32.91;;
69619;Laerm;57653;51.434;5.984;2023-02-08T00:44:10;31.70;30.57;33.04;;
69619;Laerm;57653;51.434;5.984;2023-02-08T00:44:20;31.75;30.34;32.68;;
69619;Laerm;57653;51.434;5.984;2023-02-08T00:44:30;31.74;30.62;32.76;;
69619;Laerm;57653;51.434;5.984;2023-02-08T00:44:40;32.74;30.75;37.51;;
69619;Laerm;57653;51.434;5.984;2023-02-08T00:44:51;52.18;35.15;58.92;;
69619;Laerm;57653;51.434;5.984;2023-02-08T00:45:01;61.80;57.96;64.28;;
69619;Laerm;57653;51.434;5.984;2023-02-08T00:45:11;61.37;59.39;64.24;;
69619;Laerm;57653;51.434;5.984;2023-02-08T00:45:22;56.80;45.89;61.20;;
69619;Laerm;57653;51.434;5.984;2023-02-08T00:45:32;41.60;36.33;51.01;;
69619;Laerm;57653;51.434;5.984;2023-02-08T00:45:43;35.43;32.61;40.63;;
69619;Laerm;57653;51.434;5.984;2023-02-08T00:45:53;34.21;32.58;36.41;;
69619;Laerm;57653;51.434;5.984;2023-02-08T00:46:04;33.23;31.45;35.12;;
69619;Laerm;57653;51.434;5.984;2023-02-08T00:46:14;33.42;31.68;35.27;;
69619;Laerm;57653;51.434;5.984;2023-02-08T00:46:25;33.16;31.76;35.35;;
69619;Laerm;57653;51.434;5.984;2023-02-08T00:46:35;32.51;31.37;33.94;;
69619;Laerm;57653;51.434;5.984;2023-02-08T00:46:45;32.28;31.19;33.82;;
69619;Laerm;57653;51.434;5.984;2023-02-08T00:46:55;32.15;30.67;33.59;;
69619;Laerm;57653;51.434;5.984;2023-02-08T00:47:06;31.97;31.01;32.89;;
69619;Laerm;57653;51.434;5.984;2023-02-08T00:47:16;32.04;30.75;33.60;;
69619;Laerm;57653;51.434;5.984;2023-02-08T00:47:27;31.88;30.34;34.42;;
69619;Laerm;57653;51.434;5.984;2023-02-08T00:47:37;31.75;30.63;33.00;;
69619;Laerm;57653;51.434;5.984;2023-02-08T00:47:47;31.83;30.31;33.00;;
69619;Laerm;57653;51.434;5.984;2023-02-08T00:47:58;31.79;30.60;33.02;;
69619;Laerm;57653;51.434;5.984;2023-02-08T00:48:08;31.91;30.92;33.26;;
69619;Laerm;57653;51.434;5.984;2023-02-08T00:48:18;31.81;30.84;32.84;;
69619;Laerm;57653;51.434;5.984;2023-02-08T00:48:29;31.81;30.52;36.26;;
69619;Laerm;57653;51.434;5.984;2023-02-08T00:48:40;31.70;30.66;32.97;;
69619;Laerm;57653;51.434;5.984;2023-02-08T00:48:50;31.72;30.56;32.73;;
69619;Laerm;57653;51.434;5.984;2023-02-08T00:49:01;31.71;30.36;32.97;;
69619;Laerm;57653;51.434;5.984;2023-02-08T00:49:11;31.69;30.63;32.90;;
69619;Laerm;57653;51.434;5.984;2023-02-08T00:49:21;31.68;30.47;32.69;;
69619;Laerm;57653;51.434;5.984;2023-02-08T00:49:32;31.69;30.58;32.66;;
69619;Laerm;57653;51.434;5.984;2023-02-08T00:49:42;31.65;30.14;32.59;;
69619;Laerm;57653;51.434;5.984;2023-02-08T00:49:52;31.65;30.60;32.83;;
69619;Laerm;57653;51.434;5.984;2023-02-08T00:50:03;31.63;30.42;32.89;;
69619;Laerm;57653;51.434;5.984;2023-02-08T00:50:13;31.63;30.47;32.61;;
69619;Laerm;57653;51.434;5.984;2023-02-08T00:50:24;31.59;30.50;32.48;;
69619;Laerm;57653;51.434;5.984;2023-02-08T00:50:34;31.62;30.50;32.58;;
69619;Laerm;57653;51.434;5.984;2023-02-08T00:50:44;31.60;30.37;33.11;;
69619;Laerm;57653;51.434;5.984;2023-02-08T00:51:09;31.65;30.49;33.02;;
69619;Laerm;57653;51.434;5.984;2023-02-08T00:51:22;31.61;30.51;34.92;;
69619;Laerm;57653;51.434;5.984;2023-02-08T00:51:32;31.66;30.70;32.70;;
69619;Laerm;57653;51.434;5.984;2023-02-08T00:51:42;31.61;30.29;34.97;;
69619;Laerm;57653;51.434;5.984;2023-02-08T00:51:52;31.61;30.22;33.74;;
69619;Laerm;57653;51.434;5.984;2023-02-08T00:52:02;31.62;30.61;33.04;;
69619;Laerm;57653;51.434;5.984;2023-02-08T00:52:13;31.62;30.60;33.53;;
69619;Laerm;57653;51.434;5.984;2023-02-08T00:52:23;31.59;30.34;32.75;;
69619;Laerm;57653;51.434;5.984;2023-02-08T00:52:33;31.57;30.30;32.54;;
69619;Laerm;57653;51.434;5.984;2023-02-08T00:52:44;31.59;30.24;32.57;;
69619;Laerm;57653;51.434;5.984;2023-02-08T00:52:54;31.58;30.47;32.34;;
69619;Laerm;57653;51.434;5.984;2023-02-08T00:53:04;31.60;30.52;32.67;;
69619;Laerm;57653;51.434;5.984;2023-02-08T00:53:14;31.59;30.44;32.66;;
69619;Laerm;57653;51.434;5.984;2023-02-08T00:53:24;31.61;30.29;32.48;;
69619;Laerm;57653;51.434;5.984;2023-02-08T00:53:36;31.60;30.44;32.70;;
69619;Laerm;57653;51.434;5.984;2023-02-08T00:53:46;31.62;30.30;33.32;;
69619;Laerm;57653;51.434;5.984;2023-02-08T00:53:57;31.60;30.68;32.76;;
69619;Laerm;57653;51.434;5.984;2023-02-08T00:54:11;31.69;30.42;33.65;;
69619;Laerm;57653;51.434;5.984;2023-02-08T00:54:22;31.60;30.08;33.33;;
69619;Laerm;57653;51.434;5.984;2023-02-08T00:54:32;31.62;30.23;32.50;;
69619;Laerm;57653;51.434;5.984;2023-02-08T00:54:42;31.62;30.56;32.96;;
69619;Laerm;57653;51.434;5.984;2023-02-08T00:54:53;31.58;30.68;32.49;;
69619;Laerm;57653;51.434;5.984;2023-02-08T00:55:04;31.61;30.20;32.67;;
69619;Laerm;57653;51.434;5.984;2023-02-08T00:55:14;31.67;30.62;32.78;;
69619;Laerm;57653;51.434;5.984;2023-02-08T00:55:25;31.79;30.50;35.06;;
69619;Laerm;57653;51.434;5.984;2023-02-08T00:55:35;31.57;30.51;32.49;;
69619;Laerm;57653;51.434;5.984;2023-02-08T00:55:49;31.57;30.54;32.49;;
69619;Laerm;57653;51.434;5.984;2023-02-08T00:55:59;31.56;30.43;32.55;;
69619;Laerm;57653;51.434;5.984;2023-02-08T00:56:10;31.56;30.46;32.51;;
69619;Laerm;57653;51.434;5.984;2023-02-08T00:56:21;31.55;30.22;32.42;;
69619;Laerm;57653;51.434;5.984;2023-02-08T00:56:31;31.52;30.54;32.59;;
69619;Laerm;57653;51.434;5.984;2023-02-08T00:56:41;31.53;30.20;32.46;;
69619;Laerm;57653;51.434;5.984;2023-02-08T00:56:52;31.51;30.51;32.47;;
69619;Laerm;57653;51.434;5.984;2023-02-08T00:57:02;31.54;30.38;32.61;;
69619;Laerm;57653;51.434;5.984;2023-02-08T00:57:12;31.55;30.62;32.53;;
69619;Laerm;57653;51.434;5.984;2023-02-08T00:57:23;31.50;30.43;32.36;;
69619;Laerm;57653;51.434;5.984;2023-02-08T00:57:33;31.55;30.62;32.57;;
69619;Laerm;57653;51.434;5.984;2023-02-08T00:57:44;31.51;30.61;32.44;;
69619;Laerm;57653;51.434;5.984;2023-02-08T00:57:54;31.57;30.75;33.04;;
69619;Laerm;57653;51.434;5.984;2023-02-08T00:58:04;31.59;30.37;32.57;;
69619;Laerm;57653;51.434;5.984;2023-02-08T00:58:14;31.59;30.64;32.53;;
69619;Laerm;57653;51.434;5.984;2023-02-08T00:58:25;31.66;30.41;32.88;;
69619;Laerm;57653;51.434;5.984;2023-02-08T00:58:35;31.63;30.62;32.63;;
69619;Laerm;57653;51.434;5.984;2023-02-08T00:58:46;31.95;30.70;33.37;;
69619;Laerm;57653;51.434;5.984;2023-02-08T00:58:56;33.42;30.88;38.42;;